Time;durP1;ratioP1;P1;durP2;ratioP2;P2;SDS_P1;SDS_P2;PMS_P1;PMS_P2;Temp;Humidity;BMP_temperature;BMP_pressure;BME280_temperature;BME280_humidity;BME280_pressure;Samples;Min_cycle;Max_cycle;Signal;HPM_P1;HPM_P2
2022/04/29 00:00:46;;;;;;;8.90;5.00;;;7.50;99.90;;;;;;4885524;29;20254;-61
2022/04/29 00:03:15;;;;;;;10.37;4.40;;;7.40;99.90;;;;;;4887289;29;20242;-62
2022/04/29 00:05:45;;;;;;;6.23;4.53;;;7.50;99.90;;;;;;4882304;29;20237;-61
2022/04/29 00:08:15;;;;;;;5.40;3.73;;;7.40;99.90;;;;;;4887281;29;20245;-61
2022/04/29 00:10:44;;;;;;;5.63;4.07;;;7.30;99.90;;;;;;4880827;29;20234;-61
2022/04/29 00:13:14;;;;;;;4.73;3.47;;;7.20;99.90;;;;;;4885886;29;20298;-62
2022/04/29 00:15:43;;;;;;;6.63;3.53;;;7.20;99.90;;;;;;4887586;29;20330;-61
2022/04/29 00:18:12;;;;;;;4.83;3.40;;;7.20;99.90;;;;;;4890863;29;20252;-62
2022/04/29 00:20:40;;;;;;;6.10;3.20;;;7.20;99.90;;;;;;4886404;29;20262;-61
2022/04/29 00:23:10;;;;;;;4.57;2.90;;;7.20;99.90;;;;;;4887075;29;20241;-61
2022/04/29 00:25:39;;;;;;;3.23;2.93;;;7.20;99.90;;;;;;4880545;29;20269;-61
2022/04/29 00:28:07;;;;;;;3.50;2.80;;;7.10;99.90;;;;;;4886797;29;20609;-61
2022/04/29 00:30:36;;;;;;;3.30;2.70;;;7.00;99.90;;;;;;4885046;29;20721;-61
2022/04/29 00:33:04;;;;;;;3.57;2.60;;;6.90;99.90;;;;;;4885781;29;20763;-61
2022/04/29 00:35:34;;;;;;;3.80;2.70;;;6.90;99.90;;;;;;4892052;29;20241;-61
2022/04/29 00:38:02;;;;;;;3.53;2.40;;;6.80;99.90;;;;;;4886779;29;20325;-61
2022/04/29 00:40:31;;;;;;;2.70;2.27;;;6.80;99.90;;;;;;4878900;29;20245;-61
2022/04/29 00:43:00;;;;;;;3.07;2.33;;;6.90;99.90;;;;;;4886550;29;20248;-61
2022/04/29 00:45:28;;;;;;;3.90;2.87;;;6.90;99.90;;;;;;4877332;29;20233;-61
2022/04/29 00:47:57;;;;;;;5.73;3.77;;;7.00;99.90;;;;;;4891496;29;20328;-61
2022/04/29 00:50:28;;;;;;;6.67;4.10;;;7.00;99.90;;;;;;4887799;29;20247;-61
2022/04/29 00:52:59;;;;;;;5.07;3.83;;;6.90;99.90;;;;;;4885288;29;20241;-62
2022/04/29 00:55:29;;;;;;;10.40;4.17;;;7.00;99.90;;;;;;4884630;29;20241;-61
2022/04/29 00:58:06;;;;;;;7.37;4.17;;;7.10;99.90;;;;;;4891021;29;20264;-61
2022/04/29 01:00:35;;;;;;;9.17;4.70;;;7.20;99.90;;;;;;4886324;29;20567;-61
2022/04/29 01:03:05;;;;;;;5.73;4.13;;;7.10;99.90;;;;;;4886331;29;20234;-61
2022/04/29 01:05:33;;;;;;;6.13;3.97;;;7.10;99.90;;;;;;4887320;29;20238;-61
2022/04/29 01:08:03;;;;;;;7.40;5.00;;;7.10;99.90;;;;;;4882663;29;20246;-61
2022/04/29 01:10:32;;;;;;;7.23;4.80;;;7.10;99.90;;;;;;4878403;29;20237;-61
2022/04/29 01:13:03;;;;;;;5.70;4.47;;;7.10;99.90;;;;;;4877991;29;20284;-61
2022/04/29 01:15:33;;;;;;;8.60;5.10;;;7.10;99.90;;;;;;4887178;29;20260;-61
2022/04/29 01:18:03;;;;;;;8.13;5.23;;;7.20;99.90;;;;;;4892237;29;20578;-61
2022/04/29 01:20:33;;;;;;;6.83;4.80;;;7.10;99.90;;;;;;4889795;29;20269;-61
2022/04/29 01:23:07;;;;;;;7.37;4.80;;;7.20;99.90;;;;;;4885802;29;20269;-61
2022/04/29 01:25:37;;;;;;;11.33;5.40;;;7.20;99.90;;;;;;4876875;29;20248;-61
2022/04/29 01:28:05;;;;;;;7.83;5.03;;;7.10;99.90;;;;;;4883943;29;20359;-61
2022/04/29 01:30:36;;;;;;;8.97;4.80;;;7.30;99.90;;;;;;4888643;29;20233;-61
2022/04/29 01:33:06;;;;;;;7.60;5.03;;;7.40;99.90;;;;;;4881952;29;20733;-61
2022/04/29 01:35:34;;;;;;;7.80;5.03;;;7.20;99.90;;;;;;4886133;29;20229;-61
2022/04/29 01:38:02;;;;;;;8.43;4.90;;;7.00;99.90;;;;;;4885587;29;20249;-61
2022/04/29 01:40:32;;;;;;;5.97;4.70;;;6.90;99.90;;;;;;4877917;29;20253;-61
2022/04/29 01:43:06;;;;;;;8.93;5.40;;;7.00;99.90;;;;;;4884275;29;20589;-61
2022/04/29 01:45:34;;;;;;;7.37;5.30;;;7.00;99.90;;;;;;4879774;29;20237;-61
2022/04/29 01:48:12;;;;;;;8.47;5.47;;;7.00;99.90;;;;;;4888632;29;20256;-61
2022/04/29 01:50:48;;;;;;;7.33;5.87;;;7.00;99.90;;;;;;4883699;29;20243;-61
2022/04/29 01:53:16;;;;;;;9.60;5.33;;;7.10;99.90;;;;;;4884377;29;20737;-61
2022/04/29 01:55:46;;;;;;;10.70;5.40;;;7.10;99.90;;;;;;4882751;29;20278;-61
2022/04/29 01:58:15;;;;;;;9.87;5.93;;;7.00;99.90;;;;;;4883744;29;20249;-61
2022/04/29 02:00:44;;;;;;;7.33;4.63;;;6.80;99.90;;;;;;4883674;29;20272;-61
2022/04/29 02:03:12;;;;;;;8.17;5.73;;;6.80;99.90;;;;;;4887494;29;20744;-62
2022/04/29 02:05:41;;;;;;;7.87;5.20;;;6.80;99.90;;;;;;4881398;29;20236;-60
2022/04/29 02:08:09;;;;;;;6.83;5.70;;;6.90;99.90;;;;;;4884149;29;20245;-61
2022/04/29 02:10:40;;;;;;;8.50;5.63;;;6.80;99.90;;;;;;4877450;29;20233;-61
2022/04/29 02:13:12;;;;;;;7.60;5.40;;;6.90;99.90;;;;;;4876774;29;20246;-62
2022/04/29 02:16:05;;;;;;;7.53;5.53;;;6.90;99.90;;;;;;4883442;29;20246;-61
2022/04/29 02:18:34;;;;;;;8.17;6.00;;;6.80;99.90;;;;;;4892220;29;20271;-61
2022/04/29 02:21:02;;;;;;;8.17;6.27;;;6.70;99.90;;;;;;4886441;29;20254;-61
2022/04/29 02:23:30;;;;;;;7.70;5.63;;;6.80;99.90;;;;;;4883484;29;20273;-61
2022/04/29 02:25:58;;;;;;;8.97;5.60;;;6.80;99.90;;;;;;4875889;29;20328;-61
2022/04/29 02:28:28;;;;;;;7.73;5.70;;;6.80;99.90;;;;;;4883351;29;20294;-61
2022/04/29 02:30:56;;;;;;;9.33;6.27;;;6.90;99.90;;;;;;4883302;29;20248;-62
2022/04/29 02:33:25;;;;;;;7.57;6.20;;;6.90;99.90;;;;;;4881679;29;20237;-61
2022/04/29 02:35:53;;;;;;;7.37;5.70;;;6.80;99.90;;;;;;4883081;29;20766;-61
2022/04/29 02:38:22;;;;;;;8.20;5.73;;;6.80;99.90;;;;;;4884427;29;20250;-61
2022/04/29 02:40:50;;;;;;;8.93;5.67;;;6.80;99.90;;;;;;4876487;29;20749;-61
2022/04/29 02:43:19;;;;;;;10.00;6.20;;;6.90;99.90;;;;;;4884498;29;20264;-61
2022/04/29 02:45:48;;;;;;;9.97;6.50;;;7.00;99.90;;;;;;4877979;29;20602;-61
2022/04/29 02:48:18;;;;;;;8.80;5.53;;;7.20;99.90;;;;;;4889338;29;20233;-61
2022/04/29 02:50:46;;;;;;;8.10;6.33;;;7.20;99.90;;;;;;4884252;29;20777;-61
2022/04/29 02:53:16;;;;;;;8.33;5.97;;;7.10;99.90;;;;;;4882112;29;20242;-61
2022/04/29 02:55:44;;;;;;;11.63;6.40;;;7.10;99.90;;;;;;4888609;29;20242;-61
2022/04/29 02:58:26;;;;;;;8.23;6.00;;;7.20;99.90;;;;;;4884274;29;20737;-61
2022/04/29 03:00:56;;;;;;;8.70;6.97;;;7.10;99.90;;;;;;4884470;29;20770;-61
2022/04/29 03:03:24;;;;;;;9.63;5.83;;;7.20;99.90;;;;;;4882751;29;20769;-61
2022/04/29 03:05:53;;;;;;;8.77;5.63;;;7.10;99.90;;;;;;4878288;29;20248;-61
2022/04/29 03:08:21;;;;;;;10.23;6.13;;;7.10;99.90;;;;;;4884394;29;20241;-61
2022/04/29 03:10:49;;;;;;;8.07;6.20;;;7.00;99.90;;;;;;4876853;29;20230;-61
2022/04/29 03:13:17;;;;;;;7.63;5.83;;;6.90;99.90;;;;;;4883742;29;20699;-61
2022/04/29 03:16:03;;;;;;;7.47;5.50;;;7.00;99.90;;;;;;4879861;29;20325;-61
2022/04/29 03:18:31;;;;;;;9.27;6.30;;;7.10;99.90;;;;;;4889260;29;20300;-61
2022/04/29 03:20:59;;;;;;;8.00;6.37;;;7.00;99.90;;;;;;4892426;29;20347;-61
2022/04/29 03:23:27;;;;;;;8.83;5.80;;;6.80;99.90;;;;;;4886035;29;20266;-62
2022/04/29 03:25:56;;;;;;;10.63;6.23;;;6.90;99.90;;;;;;4895225;29;20260;-61
2022/04/29 03:28:25;;;;;;;8.37;6.00;;;6.80;99.90;;;;;;4884123;29;20316;-61
2022/04/29 03:30:54;;;;;;;8.03;6.10;;;6.90;99.90;;;;;;4881341;29;20319;-61
2022/04/29 03:33:27;;;;;;;8.10;6.03;;;6.80;99.90;;;;;;4884627;29;20316;-61
2022/04/29 03:35:55;;;;;;;6.83;5.03;;;6.60;99.90;;;;;;4881145;29;20238;-61
2022/04/29 03:38:30;;;;;;;7.73;6.23;;;6.70;99.90;;;;;;4890845;29;20240;-62
2022/04/29 03:40:59;;;;;;;10.23;5.33;;;6.50;99.90;;;;;;4876680;29;20238;-61
2022/04/29 03:43:30;;;;;;;6.73;5.97;;;6.70;99.90;;;;;;4882702;29;20583;-61
2022/04/29 03:45:58;;;;;;;7.13;4.97;;;6.50;99.90;;;;;;4879277;29;20647;-61
2022/04/29 03:51:36;;;;;;;8.37;5.70;;;6.50;99.90;;;;;;4883100;29;20258;-61
2022/04/29 03:54:05;;;;;;;8.30;6.50;;;6.50;99.90;;;;;;4885902;29;20241;-61
2022/04/29 03:56:37;;;;;;;7.30;5.70;;;6.40;99.90;;;;;;4883937;29;20721;-61
2022/04/29 03:59:05;;;;;;;8.47;6.23;;;6.40;99.90;;;;;;4882471;29;20367;-61
2022/04/29 04:01:33;;;;;;;10.67;6.53;;;6.50;99.90;;;;;;4895258;29;20229;-61
2022/04/29 04:04:08;;;;;;;9.77;6.70;;;6.60;99.90;;;;;;4865263;29;20238;-60
2022/04/29 04:06:51;;;;;;;17.17;7.73;;;6.70;99.90;;;;;;4879955;29;20242;-61
2022/04/29 04:09:24;;;;;;;10.90;7.07;;;6.80;99.90;;;;;;4872528;29;20265;-62
2022/04/29 04:11:59;;;;;;;20.07;8.33;;;6.80;99.90;;;;;;4877405;29;20233;-61
2022/04/29 04:14:50;;;;;;;9.30;6.87;;;6.80;99.90;;;;;;4871878;29;20237;-61
2022/04/29 04:17:18;;;;;;;10.67;6.73;;;6.90;99.90;;;;;;4871075;29;20238;-61
2022/04/29 04:19:49;;;;;;;11.27;7.00;;;6.80;99.90;;;;;;4883663;29;20575;-61
2022/04/29 04:22:17;;;;;;;10.97;6.73;;;6.80;99.90;;;;;;4871459;29;20259;-61
2022/04/29 04:24:45;;;;;;;10.67;7.40;;;6.80;99.90;;;;;;4867950;29;20246;-61
2022/04/29 04:27:14;;;;;;;11.07;7.33;;;6.70;99.90;;;;;;4869520;29;20320;-61
2022/04/29 04:29:42;;;;;;;10.43;7.77;;;6.70;99.90;;;;;;4862776;29;20249;-61
2022/04/29 04:32:11;;;;;;;11.43;6.97;;;6.70;99.90;;;;;;4876902;29;20805;-62
2022/04/29 04:34:51;;;;;;;10.17;6.67;;;6.70;99.90;;;;;;4871131;29;20698;-61
2022/04/29 04:37:22;;;;;;;15.60;7.33;;;6.70;99.90;;;;;;4876741;29;20290;-61
2022/04/29 04:39:58;;;;;;;10.03;6.17;;;6.90;99.90;;;;;;4896097;29;20248;-60
2022/04/29 04:42:43;;;;;;;7.57;6.37;;;6.90;99.90;;;;;;4889982;29;20706;-60
2022/04/29 04:45:12;;;;;;;8.70;6.63;;;6.70;99.90;;;;;;4885417;29;20241;-61
2022/04/29 04:47:54;;;;;;;6.97;5.53;;;6.60;99.90;;;;;;4890557;29;20248;-61
2022/04/29 04:50:42;;;;;;;10.07;7.20;;;6.80;99.90;;;;;;4892586;29;20728;-61
2022/04/29 04:53:12;;;;;;;11.63;7.63;;;7.10;99.90;;;;;;4882193;29;20790;-62
2022/04/29 04:55:41;;;;;;;14.77;8.10;;;7.10;99.90;;;;;;4884372;29;20242;-62
2022/04/29 04:58:09;;;;;;;12.90;8.47;;;7.30;99.90;;;;;;4877460;29;20244;-61
2022/04/29 05:00:39;;;;;;;10.70;7.77;;;7.10;99.90;;;;;;4906979;29;20237;-61
2022/04/29 05:03:30;;;;;;;11.57;7.20;;;7.00;99.90;;;;;;4881428;29;20277;-61
2022/04/29 05:06:19;;;;;;;9.70;6.60;;;6.90;99.90;;;;;;4877641;29;20239;-61
2022/04/29 05:08:48;;;;;;;13.47;7.43;;;7.10;99.90;;;;;;4883458;29;20560;-61
2022/04/29 05:11:16;;;;;;;12.93;7.77;;;7.10;99.90;;;;;;4861483;29;20618;-61
2022/04/29 05:14:05;;;;;;;9.87;7.67;;;7.00;99.90;;;;;;4886443;29;20239;-61
2022/04/29 05:16:38;;;;;;;11.97;7.63;;;7.00;99.90;;;;;;4885643;29;20646;-61
2022/04/29 05:19:26;;;;;;;13.23;8.03;;;6.90;99.90;;;;;;4880507;29;20242;-61
2022/04/29 05:21:54;;;;;;;14.37;8.10;;;6.90;99.90;;;;;;4886015;29;20265;-61
2022/04/29 05:24:26;;;;;;;22.80;8.67;;;6.90;99.90;;;;;;4880692;29;20234;-61
2022/04/29 05:27:30;;;;;;;18.67;8.80;;;7.00;99.90;;;;;;4866423;29;20242;-61
2022/04/29 05:30:17;;;;;;;10.80;7.47;;;7.10;99.90;;;;;;4867285;29;20383;-61
2022/04/29 05:33:03;;;;;;;17.80;7.70;;;7.10;99.90;;;;;;4869595;29;20311;-61
2022/04/29 05:36:08;;;;;;;19.47;8.37;;;7.30;99.90;;;;;;4885304;29;20340;-61
2022/04/29 05:44:34;;;;;;;11.87;7.97;;;7.30;99.90;;;;;;4884067;29;20241;-61
2022/04/29 05:47:02;;;;;;;14.13;8.63;;;7.40;99.90;;;;;;4886481;29;20248;-61
2022/04/29 05:49:30;;;;;;;11.33;7.73;;;7.50;99.90;;;;;;4885415;29;20244;-61
2022/04/29 05:52:00;;;;;;;9.73;8.13;;;7.60;99.90;;;;;;4888159;29;20245;-61
2022/04/29 05:54:31;;;;;;;12.07;8.07;;;7.80;99.90;;;;;;4883371;29;20233;-60
2022/04/29 05:57:02;;;;;;;14.77;7.80;;;7.90;99.90;;;;;;4883639;29;20237;-61
2022/04/29 05:59:30;;;;;;;13.40;8.50;;;8.10;99.90;;;;;;4880980;29;20261;-61
2022/04/29 06:02:03;;;;;;;9.97;7.70;;;8.30;99.90;;;;;;4885807;29;20238;-62
2022/04/29 06:04:37;;;;;;;10.83;6.70;;;8.40;99.90;;;;;;4894826;29;20236;-61
2022/04/29 06:07:06;;;;;;;13.90;7.30;;;8.60;99.90;;;;;;4884374;29;20248;-61
2022/04/29 06:09:35;;;;;;;10.63;6.30;;;8.80;99.90;;;;;;4879993;29;20229;-61
2022/04/29 06:12:06;;;;;;;8.97;6.50;;;8.70;99.90;;;;;;4882634;29;20249;-61
2022/04/29 06:14:36;;;;;;;6.57;5.60;;;8.60;99.90;;;;;;4891916;29;20273;-61
2022/04/29 06:17:23;;;;;;;10.07;5.47;;;8.50;99.90;;;;;;4886538;29;20253;-61
2022/04/29 06:20:23;;;;;;;8.17;5.43;;;8.50;99.90;;;;;;4855510;29;20324;-61
2022/04/29 06:23:09;;;;;;;9.13;4.70;;;8.60;99.90;;;;;;4886473;29;20316;-61
2022/04/29 06:25:37;;;;;;;20.53;5.37;;;8.60;99.90;;;;;;4888571;29;20647;-61
2022/04/29 06:28:07;;;;;;;9.53;4.60;;;8.60;99.90;;;;;;4886604;29;20721;-61
2022/04/29 06:30:35;;;;;;;9.47;4.00;;;8.60;99.90;;;;;;4884978;29;20645;-61
2022/04/29 06:33:53;;;;;;;5.97;3.20;;;8.70;99.90;;;;;;4862058;29;20241;-62
2022/04/29 06:36:22;;;;;;;5.80;3.40;;;8.90;99.90;;;;;;4884622;29;20233;-61
2022/04/29 06:38:55;;;;;;;9.77;3.40;;;9.20;99.90;;;;;;4885569;29;20237;-61
2022/04/29 06:41:42;;;;;;;5.47;3.10;;;9.60;99.90;;;;;;4887581;29;20260;-61
2022/04/29 06:44:22;;;;;;;7.53;3.27;;;9.80;99.90;;;;;;4887798;29;20321;-61
2022/04/29 06:47:08;;;;;;;7.00;2.87;;;10.00;99.90;;;;;;4888674;29;20252;-61
2022/04/29 06:49:55;;;;;;;6.87;2.90;;;10.10;99.90;;;;;;4879538;29;20324;-61
2022/04/29 06:52:49;;;;;;;4.53;2.77;;;10.20;99.90;;;;;;4883764;29;20270;-61
2022/04/29 06:55:22;;;;;;;4.77;2.53;;;10.10;99.90;;;;;;4883049;29;20663;-61
2022/04/29 06:57:50;;;;;;;5.17;2.93;;;9.90;99.90;;;;;;4887190;29;20238;-61
2022/04/29 07:00:21;;;;;;;6.27;3.13;;;9.90;99.90;;;;;;4882870;29;20631;-62
2022/04/29 07:02:52;;;;;;;5.73;3.00;;;10.00;99.90;;;;;;4883133;29;20239;-61
2022/04/29 07:05:20;;;;;;;6.00;2.93;;;10.10;99.90;;;;;;4891809;29;20241;-61
2022/04/29 07:07:49;;;;;;;11.70;3.40;;;10.20;99.90;;;;;;4886180;29;20272;-61
2022/04/29 07:10:40;;;;;;;4.97;2.90;;;10.30;99.90;;;;;;4883790;29;20264;-61
2022/04/29 07:13:43;;;;;;;7.43;3.20;;;10.60;99.90;;;;;;4866881;29;20235;-62
2022/04/29 07:16:14;;;;;;;3.93;2.57;;;10.80;99.90;;;;;;4870922;29;20295;-62
2022/04/29 07:19:01;;;;;;;6.57;2.93;;;11.00;99.90;;;;;;4881471;29;20254;-61
2022/04/29 07:21:29;;;;;;;4.23;2.90;;;10.90;99.90;;;;;;4872548;29;20321;-62
2022/04/29 07:23:59;;;;;;;6.50;2.73;;;11.00;99.90;;;;;;4881614;29;20332;-61
2022/04/29 07:26:32;;;;;;;4.73;2.60;;;11.00;99.90;;;;;;4874585;29;21770;-61
2022/04/29 07:29:01;;;;;;;7.00;2.63;;;11.40;99.90;;;;;;4877223;29;20249;-62
2022/04/29 07:31:37;;;;;;;6.37;2.40;;;11.80;99.90;;;;;;4865759;29;20322;-61
2022/04/29 07:34:14;;;;;;;5.13;2.20;;;11.80;99.90;;;;;;4870696;29;20250;-61
2022/04/29 07:42:50;;;;;;;4.80;2.30;;;13.10;99.90;;;;;;4850339;29;20593;-63
2022/04/29 07:45:19;;;;;;;4.30;2.50;;;13.00;99.90;;;;;;4877888;29;20236;-62
2022/04/29 07:48:09;;;;;;;6.33;2.40;;;13.00;99.90;;;;;;4870301;29;20244;-62
2022/04/29 07:50:37;;;;;;;2.83;2.17;;;12.80;99.90;;;;;;4872179;29;20241;-61
2022/04/29 07:53:06;;;;;;;6.57;2.50;;;12.70;99.90;;;;;;4866616;29;20273;-62
2022/04/29 07:55:34;;;;;;;4.20;2.20;;;12.60;99.90;;;;;;4869577;29;20244;-62
2022/04/29 07:58:04;;;;;;;7.93;2.70;;;12.30;99.90;;;;;;4875632;29;20245;-61
2022/04/29 08:00:32;;;;;;;6.00;2.47;;;12.00;99.90;;;;;;4873896;29;20691;-61
2022/04/29 08:03:22;;;;;;;6.17;2.40;;;11.80;99.90;;;;;;4896657;29;20239;-62
2022/04/29 08:05:58;;;;;;;7.90;2.90;;;11.80;99.90;;;;;;4876626;29;20243;-62
2022/04/29 08:08:26;;;;;;;8.33;2.43;;;11.50;99.90;;;;;;4878593;29;20242;-62
2022/04/29 08:10:55;;;;;;;6.53;2.37;;;11.30;99.90;;;;;;4881252;29;20711;-61
2022/04/29 08:13:24;;;;;;;3.93;2.17;;;11.30;99.90;;;;;;4887367;29;20729;-61
2022/04/29 08:16:18;;;;;;;7.00;2.70;;;11.30;99.90;;;;;;4878062;29;20620;-61
2022/04/29 08:19:10;;;;;;;6.63;2.37;;;11.40;99.90;;;;;;4893635;29;20793;-62
2022/04/29 08:22:05;;;;;;;4.67;2.43;;;11.80;99.90;;;;;;4888234;29;20326;-61
2022/04/29 08:24:33;;;;;;;3.93;2.10;;;12.10;99.90;;;;;;4897339;29;20244;-61
2022/04/29 08:27:02;;;;;;;4.67;2.07;;;12.30;99.90;;;;;;4888242;29;20246;-61
2022/04/29 08:29:30;;;;;;;7.33;2.63;;;12.60;99.90;;;;;;4884850;29;20244;-61
2022/04/29 08:31:58;;;;;;;6.20;2.87;;;12.80;99.90;;;;;;4891434;29;20286;-61
2022/04/29 08:34:28;;;;;;;5.40;2.77;;;13.10;99.90;;;;;;4881550;29;20243;-61
2022/04/29 08:36:56;;;;;;;5.87;2.57;;;13.40;99.90;;;;;;4886509;29;20248;-62
2022/04/29 08:39:24;;;;;;;4.53;2.20;;;13.10;99.90;;;;;;4878694;29;20255;-61
2022/04/29 08:41:53;;;;;;;6.73;2.80;;;13.30;99.90;;;;;;4897946;29;20241;-61
2022/04/29 08:44:25;;;;;;;8.40;3.33;;;13.70;99.90;;;;;;4890608;29;20248;-61
2022/04/29 08:47:08;;;;;;;5.33;2.50;;;14.20;99.90;;;;;;4892341;29;20323;-62
2022/04/29 08:49:48;;;;;;;6.87;2.67;;;14.00;99.90;;;;;;4877503;29;20609;-62
2022/04/29 08:52:16;;;;;;;4.20;2.17;;;13.80;99.90;;;;;;4889301;29;20256;-61
2022/04/29 09:00:24;;;;;;;4.90;2.10;;;14.10;99.90;;;;;;4884532;29;20653;-64
2022/04/29 09:02:53;;;;;;;6.37;2.33;;;14.40;99.90;;;;;;4891316;29;20240;-64
2022/04/29 09:05:23;;;;;;;7.67;2.40;;;14.60;99.90;;;;;;4896484;29;20305;-63
2022/04/29 09:07:53;;;;;;;4.80;2.30;;;14.50;99.90;;;;;;4878623;29;20703;-64
2022/04/29 09:10:22;;;;;;;6.83;2.70;;;14.30;99.90;;;;;;4889451;29;20248;-64
2022/04/29 09:12:50;;;;;;;8.30;3.07;;;14.10;99.90;;;;;;4889683;29;20657;-63
2022/04/29 09:15:19;;;;;;;5.50;2.50;;;14.30;99.90;;;;;;4880495;29;20248;-64
2022/04/29 09:17:48;;;;;;;5.73;2.70;;;14.10;99.90;;;;;;4896674;29;20244;-64
2022/04/29 09:20:18;;;;;;;4.27;2.30;;;14.20;99.90;;;;;;4896224;29;20768;-64
2022/04/29 09:22:49;;;;;;;2.93;2.20;;;14.20;99.90;;;;;;4879531;29;20245;-64
2022/04/29 09:25:46;;;;;;;3.50;2.70;;;14.10;99.90;;;;;;4891797;29;20282;-64
2022/04/29 09:28:36;;;;;;;5.80;2.53;;;14.20;99.90;;;;;;4876398;29;20248;-64
2022/04/29 09:31:17;;;;;;;6.40;2.70;;;14.50;99.90;;;;;;4889733;29;20616;-64
2022/04/29 09:34:24;;;;;;;3.77;2.63;;;14.60;99.90;;;;;;4874274;29;20236;-66
2022/04/29 09:37:15;;;;;;;4.63;2.50;;;14.40;99.90;;;;;;4872879;29;20725;-64
2022/04/29 09:39:54;;;;;;;8.90;2.47;;;14.70;99.90;;;;;;4886382;29;20296;-63
2022/04/29 09:42:22;;;;;;;4.77;3.23;;;15.10;99.90;;;;;;4886335;29;20260;-63
2022/04/29 09:44:51;;;;;;;6.07;2.90;;;15.10;99.90;;;;;;4885273;29;20250;-63
2022/04/29 09:47:20;;;;;;;9.83;3.17;;;14.80;99.90;;;;;;4889032;29;20265;-63
2022/04/29 09:49:54;;;;;;;9.80;2.87;;;14.80;99.90;;;;;;4887938;29;20599;-63
2022/04/29 09:52:23;;;;;;;4.17;2.63;;;14.60;99.90;;;;;;4884305;29;20272;-63
2022/04/29 09:54:51;;;;;;;5.07;2.53;;;14.50;99.90;;;;;;4889427;29;20255;-63
2022/04/29 09:57:23;;;;;;;4.87;2.70;;;14.40;99.90;;;;;;4881543;29;20248;-63
2022/04/29 09:59:53;;;;;;;5.83;2.60;;;14.70;99.90;;;;;;4887296;29;20348;-63
2022/04/29 10:02:22;;;;;;;5.20;3.13;;;15.00;99.90;;;;;;4887790;29;20246;-63
2022/04/29 10:04:56;;;;;;;5.53;3.30;;;15.20;99.90;;;;;;4884218;29;20238;-63
2022/04/29 10:07:26;;;;;;;4.87;3.43;;;15.30;99.90;;;;;;4882406;29;20639;-63
2022/04/29 10:10:03;;;;;;;6.77;3.20;;;14.90;99.90;;;;;;4884270;29;20248;-63
2022/04/29 10:12:34;;;;;;;6.13;3.67;;;15.00;99.90;;;;;;4873414;29;20281;-63
2022/04/29 10:15:24;;;;;;;9.07;4.17;;;15.10;99.90;;;;;;4867828;29;20241;-63
2022/04/29 10:21:17;;;;;;;4.30;3.90;;;14.80;99.90;;;;;;4874208;29;20352;-63
2022/04/29 10:23:51;;;;;;;5.40;3.73;;;14.90;99.90;;;;;;4890640;29;20265;-63
2022/04/29 10:26:22;;;;;;;9.13;5.10;;;15.20;99.90;;;;;;4875704;29;20714;-63
2022/04/29 10:28:52;;;;;;;5.63;4.20;;;15.30;99.90;;;;;;4879671;29;20324;-63
2022/04/29 10:31:24;;;;;;;8.17;4.70;;;15.20;99.90;;;;;;4867816;29;20651;-63
2022/04/29 10:33:52;;;;;;;7.43;4.27;;;14.90;99.90;;;;;;4874384;29;20250;-63
2022/04/29 10:36:24;;;;;;;5.20;4.30;;;14.90;99.90;;;;;;4874180;29;20241;-63
2022/04/29 10:39:01;;;;;;;6.83;4.00;;;15.30;99.90;;;;;;4868877;29;20241;-63
2022/04/29 10:41:31;;;;;;;5.47;4.03;;;15.60;99.90;;;;;;4868256;29;20242;-63
2022/04/29 10:44:07;;;;;;;4.70;3.33;;;15.30;99.90;;;;;;4874574;29;20602;-64
2022/04/29 10:46:36;;;;;;;6.97;3.07;;;15.30;99.90;;;;;;4884095;29;20237;-63
2022/04/29 10:49:22;;;;;;;5.83;2.60;;;15.00;99.90;;;;;;4869742;29;20242;-63
2022/04/29 10:52:25;;;;;;;5.30;2.33;;;15.10;99.90;;;;;;4874710;29;20248;-64
2022/04/29 10:55:06;;;;;;;5.23;2.10;;;15.60;99.90;;;;;;4866770;29;20321;-63
2022/04/29 10:57:44;;;;;;;3.13;2.00;;;15.50;99.90;;;;;;4871578;29;20725;-63
2022/04/29 11:00:30;;;;;;;3.90;2.03;;;15.50;99.90;;;;;;4868399;29;20233;-64
2022/04/29 11:03:36;;;;;;;4.20;1.83;;;15.40;99.90;;;;;;4872315;29;20408;-64
2022/04/29 11:06:12;;;;;;;3.47;1.87;;;15.70;99.90;;;;;;4863998;29;20666;-63
2022/04/29 11:08:41;;;;;;;2.93;2.10;;;16.10;99.90;;;;;;4868502;29;20245;-63
2022/04/29 11:11:09;;;;;;;4.37;2.10;;;16.00;99.90;;;;;;4870473;29;20241;-63
2022/04/29 11:13:59;;;;;;;6.07;2.50;;;16.10;99.90;;;;;;4865837;29;20240;-63
2022/04/29 11:16:56;;;;;;;3.47;2.40;;;15.80;99.90;;;;;;4873709;29;20267;-63
2022/04/29 11:19:45;;;;;;;4.10;2.10;;;15.70;99.90;;;;;;4861819;29;20242;-63
2022/04/29 11:25:10;;;;;;;4.83;2.23;;;15.70;99.90;;;;;;4855422;29;20258;-64
2022/04/29 11:27:41;;;;;;;6.10;2.30;;;15.70;99.90;;;;;;4872964;29;20229;-63
2022/04/29 11:30:14;;;;;;;2.90;2.53;;;15.70;99.90;;;;;;4906392;29;20241;-63
2022/04/29 11:32:48;;;;;;;3.97;2.60;;;15.60;99.90;;;;;;4886881;29;20245;-63
2022/04/29 11:35:23;;;;;;;6.07;2.87;;;15.80;99.90;;;;;;4889892;29;20273;-64
2022/04/29 11:37:51;;;;;;;4.13;2.80;;;15.80;99.90;;;;;;4884762;29;20646;-64
2022/04/29 11:40:19;;;;;;;6.83;2.93;;;15.70;99.90;;;;;;4885578;29;20429;-63
2022/04/29 11:42:51;;;;;;;4.90;2.63;;;15.60;99.90;;;;;;4887639;29;20590;-63
2022/04/29 11:45:22;;;;;;;5.63;2.80;;;15.40;99.90;;;;;;4887422;29;20242;-64
2022/04/29 11:47:51;;;;;;;5.70;3.40;;;15.10;99.90;;;;;;4889008;29;20229;-64
2022/04/29 11:50:32;;;;;;;4.63;3.30;;;14.90;99.90;;;;;;4895966;29;20241;-64
2022/04/29 11:53:08;;;;;;;4.33;2.67;;;14.80;99.90;;;;;;4886425;29;20769;-63
2022/04/29 11:55:37;;;;;;;5.27;3.13;;;14.70;99.90;;;;;;4888596;29;20273;-64
2022/04/29 11:58:06;;;;;;;5.73;2.93;;;14.60;99.90;;;;;;4891167;29;20248;-64
2022/04/29 12:00:35;;;;;;;4.77;3.00;;;14.60;99.90;;;;;;4886867;29;20586;-63
2022/04/29 12:03:05;;;;;;;5.63;2.80;;;14.60;99.90;;;;;;4887205;29;20245;-63
2022/04/29 12:05:33;;;;;;;4.80;3.00;;;14.50;99.90;;;;;;4880145;29;20861;-64
2022/04/29 12:08:06;;;;;;;4.63;2.63;;;14.40;99.90;;;;;;4885332;29;20325;-64
2022/04/29 12:10:45;;;;;;;7.00;2.97;;;14.70;99.90;;;;;;4889797;29;20703;-64
2022/04/29 12:13:14;;;;;;;4.03;2.70;;;14.80;99.90;;;;;;4885883;29;20726;-64
2022/04/29 12:15:46;;;;;;;3.60;2.50;;;15.10;99.90;;;;;;4892018;29;20540;-64
2022/04/29 12:18:16;;;;;;;3.83;2.87;;;15.10;99.90;;;;;;4886826;29;20252;-63
2022/04/29 12:20:58;;;;;;;4.90;3.00;;;14.90;99.90;;;;;;4886084;29;20237;-64
2022/04/29 12:23:32;;;;;;;4.03;2.50;;;15.00;99.90;;;;;;4886780;29;20230;-64
2022/04/29 12:26:01;;;;;;;4.10;2.73;;;15.30;99.90;;;;;;4888065;29;20293;-63
2022/04/29 12:28:31;;;;;;;4.53;2.43;;;15.40;99.90;;;;;;4888280;29;20241;-63
2022/04/29 12:36:53;;;;;;;3.60;2.60;;;14.90;99.90;;;;;;4882199;29;20237;-64
2022/04/29 12:39:26;;;;;;;5.30;2.40;;;14.60;99.90;;;;;;4878803;29;20313;-64
2022/04/29 12:41:59;;;;;;;4.37;2.70;;;14.70;99.90;;;;;;4885301;29;20737;-64
2022/04/29 12:47:32;;;;;;;3.90;2.53;;;14.60;99.90;;;;;;4883843;29;20244;-64
2022/04/29 12:50:20;;;;;;;4.27;2.67;;;14.50;99.90;;;;;;4897629;29;20241;-64
2022/04/29 12:52:57;;;;;;;3.53;2.60;;;14.50;99.90;;;;;;4885588;29;20238;-64
2022/04/29 12:55:25;;;;;;;3.67;2.40;;;14.40;99.90;;;;;;4886967;29;20617;-65
2022/04/29 12:58:03;;;;;;;3.17;2.60;;;14.40;99.90;;;;;;4886329;29;20245;-64
2022/04/29 13:00:37;;;;;;;4.27;2.60;;;14.10;99.90;;;;;;4886809;29;20236;-64
2022/04/29 13:03:07;;;;;;;4.03;2.57;;;14.10;99.90;;;;;;4888482;29;20679;-64
2022/04/29 13:05:38;;;;;;;4.27;2.80;;;14.10;99.90;;;;;;4884123;29;20290;-64
2022/04/29 13:08:09;;;;;;;6.13;2.60;;;14.20;99.90;;;;;;4887974;29;20244;-64
2022/04/29 13:10:45;;;;;;;6.70;2.70;;;14.20;99.90;;;;;;4891448;29;20239;-64
2022/04/29 13:13:14;;;;;;;4.73;2.90;;;14.30;99.90;;;;;;4888114;29;20245;-64
2022/04/29 13:15:43;;;;;;;3.77;2.57;;;14.30;99.90;;;;;;4895192;29;20730;-64
2022/04/29 13:18:16;;;;;;;7.27;3.40;;;14.40;99.90;;;;;;4887748;29;20256;-64
2022/04/29 13:20:45;;;;;;;4.33;2.83;;;14.30;99.90;;;;;;4891330;29;21438;-64
2022/04/29 13:23:26;;;;;;;5.50;2.60;;;14.40;99.90;;;;;;4883926;29;20329;-64
2022/04/29 13:25:58;;;;;;;6.43;2.63;;;14.40;99.90;;;;;;4887591;29;20242;-64
2022/04/29 13:28:26;;;;;;;4.23;2.20;;;14.40;99.90;;;;;;4880434;29;20279;-64
2022/04/29 13:30:54;;;;;;;3.73;2.60;;;14.30;99.90;;;;;;4891018;29;20225;-64
2022/04/29 13:33:22;;;;;;;4.47;2.60;;;14.40;99.90;;;;;;4884807;29;20288;-63
2022/04/29 13:35:52;;;;;;;4.67;2.50;;;14.30;99.90;;;;;;4884322;29;20585;-63
2022/04/29 13:38:22;;;;;;;3.17;2.40;;;14.30;99.90;;;;;;4896205;29;20245;-64
2022/04/29 13:40:51;;;;;;;3.60;2.33;;;14.30;99.90;;;;;;4895165;29;20693;-63
2022/04/29 13:43:20;;;;;;;3.77;2.57;;;14.40;99.90;;;;;;4896136;29;20252;-63
2022/04/29 13:45:49;;;;;;;6.70;3.07;;;14.30;99.90;;;;;;4882560;29;20245;-64
2022/04/29 13:48:18;;;;;;;3.77;2.63;;;14.30;99.90;;;;;;4878147;29;20247;-63
2022/04/29 13:50:47;;;;;;;6.03;2.93;;;14.30;99.90;;;;;;4889432;29;20241;-64
2022/04/29 13:53:16;;;;;;;3.93;2.43;;;14.30;99.90;;;;;;4880694;29;20248;-63
2022/04/29 13:55:47;;;;;;;3.83;2.70;;;14.20;99.90;;;;;;4884817;29;20251;-63
2022/04/29 13:58:16;;;;;;;5.03;2.80;;;14.20;99.90;;;;;;4888858;29;20249;-63